Time;durP1;ratioP1;P1;durP2;ratioP2;P2;SDS_P1;SDS_P2;PMS_P1;PMS_P2;Temp;Humidity;BMP_temperature;BMP_pressure;BME280_temperature;BME280_humidity;BME280_pressure;Samples;Min_cycle;Max_cycle;Signal;HPM_P1;HPM_P2
2024/03/12 00:00:18;;;;;;;;;;;;;;;4.37;100.00;96069.13;5065083;28;19932;-67
2024/03/12 00:02:47;;;;;;;;;;;;;;;4.35;100.00;96061.53;5065529;28;19951;-67
2024/03/12 00:05:13;;;;;;;;;;;;;;;4.34;100.00;96064.31;5064928;28;19934;-67
2024/03/12 00:07:43;;;;;;;;;;;;;;;4.31;100.00;96057.69;5064893;28;19942;-67
2024/03/12 00:10:15;;;;;;;;;;;;;;;4.30;100.00;96065.66;5065118;28;19933;-67
2024/03/12 00:12:44;;;;;;;;;;;;;;;4.28;100.00;96073.63;5064781;28;19934;-83
2024/03/12 00:15:10;;;;;;;;;;;;;;;4.25;100.00;96074.81;5064814;28;19952;-69
2024/03/12 00:17:36;;;;;;;;;;;;;;;4.22;100.00;96075.19;5064747;28;20126;-69
2024/03/12 00:20:06;;;;;;;;;;;;;;;4.19;100.00;96078.16;5064696;28;19931;-70
2024/03/12 00:22:33;;;;;;;;;;;;;;;4.16;100.00;96075.13;5065458;28;19952;-70
2024/03/12 00:25:00;;;;;;;;;;;;;;;4.13;100.00;96071.09;5064620;28;19940;-69
2024/03/12 00:27:25;;;;;;;;;;;;;;;4.09;100.00;96067.28;5064566;28;19935;-69
2024/03/12 00:29:52;;;;;;;;;;;;;;;4.05;100.00;96073.84;5064508;28;20033;-67
2024/03/12 00:32:18;;;;;;;;;;;;;;;4.03;100.00;96075.81;5063378;28;19943;-69
2024/03/12 00:34:45;;;;;;;;;;;;;;;4.00;100.00;96073.59;5064297;28;19963;-67
2024/03/12 00:37:11;;;;;;;;;;;;;;;3.96;100.00;96075.75;5064901;28;19942;-67
2024/03/12 00:39:37;;;;;;;;;;;;;;;3.94;100.00;96076.94;5064885;28;19933;-66
2024/03/12 00:42:03;;;;;;;;;;;;;;;3.90;100.00;96078.28;5064269;28;19952;-67
2024/03/12 00:44:31;;;;;;;;;;;;;;;3.86;100.00;96078.66;5064288;28;19942;-66
2024/03/12 00:46:57;;;;;;;;;;;;;;;3.85;100.00;96084.81;5064224;28;19933;-66
2024/03/12 00:49:25;;;;;;;;;;;;;;;3.82;100.00;96085.22;5064216;28;19935;-67
2024/03/12 00:51:52;;;;;;;;;;;;;;;3.77;100.00;96092.72;5064205;28;19929;-66
2024/03/12 00:54:18;;;;;;;;;;;;;;;3.73;100.00;96085.50;5064168;28;20221;-67
2024/03/12 00:56:46;;;;;;;;;;;;;;;3.70;100.00;96086.66;5064080;28;19950;-67
2024/03/12 00:59:14;;;;;;;;;;;;;;;3.68;100.00;96093.03;5064332;28;19936;-67
2024/03/12 01:01:41;;;;;;;;;;;;;;;3.64;100.00;96093.38;5063951;28;19955;-67
2024/03/12 01:04:07;;;;;;;;;;;;;;;3.62;100.00;96092.75;5063983;28;19929;-67
2024/03/12 01:06:34;;;;;;;;;;;;;;;3.60;100.00;96099.13;5064817;28;19940;-69
2024/03/12 01:09:03;;;;;;;;;;;;;;;3.58;100.00;96086.34;5063013;28;20336;-80
2024/03/12 01:11:28;;;;;;;;;;;;;;;3.57;100.00;96086.50;5063944;28;19933;-69
2024/03/12 01:13:54;;;;;;;;;;;;;;;3.55;100.00;96088.47;5064393;28;19942;-69
2024/03/12 01:16:20;;;;;;;;;;;;;;;3.53;100.00;96090.44;5063882;28;20044;-69
2024/03/12 01:18:46;;;;;;;;;;;;;;;3.52;100.00;96094.03;5064633;28;19942;-69
2024/03/12 01:21:13;;;;;;;;;;;;;;;3.50;100.00;96088.25;5063815;28;19968;-69
2024/03/12 01:23:39;;;;;;;;;;;;;;;3.45;100.00;96084.41;5063219;28;19954;-68
2024/03/12 01:26:07;;;;;;;;;;;;;;;3.41;100.00;96088.34;5064304;28;20083;-67
2024/03/12 01:28:34;;;;;;;;;;;;;;;3.39;100.00;96092.91;5064619;28;19933;-66
2024/03/12 01:31:00;;;;;;;;;;;;;;;3.38;100.00;96096.50;5063911;28;20211;-67
2024/03/12 01:33:27;;;;;;;;;;;;;;;3.36;100.00;96089.84;5063503;28;19961;-67
2024/03/12 01:36:05;;;;;;;;;;;;;;;3.34;100.00;96091.81;5064529;28;19965;-67
2024/03/12 01:38:34;;;;;;;;;;;;;;;3.34;100.00;96086.63;5063959;28;20236;-67
2024/03/12 01:41:05;;;;;;;;;;;;;;;3.32;100.00;96084.25;5063871;28;19937;-67
2024/03/12 01:43:31;;;;;;;;;;;;;;;3.32;100.00;96089.44;5063569;28;20273;-73
2024/03/12 01:45:58;;;;;;;;;;;;;;;3.33;100.00;96103.19;5063593;28;19934;-82
2024/03/12 01:48:24;;;;;;;;;;;;;;;3.30;100.00;96098.34;5063575;28;19957;-66
2024/03/12 01:50:50;;;;;;;;;;;;;;;3.30;100.00;96100.94;5064325;28;19993;-66
2024/03/12 01:53:16;;;;;;;;;;;;;;;3.28;100.00;96102.94;5063947;28;19936;-66
2024/03/12 01:55:42;;;;;;;;;;;;;;;3.26;100.00;96105.69;5064053;28;19959;-66
2024/03/12 01:58:08;;;;;;;;;;;;;;;3.23;100.00;96101.69;5063477;28;19944;-67
2024/03/12 02:00:34;;;;;;;;;;;;;;;3.23;100.00;96103.47;5063415;28;19945;-66
2024/03/12 02:03:00;;;;;;;;;;;;;;;3.22;100.00;96105.25;5063408;28;19954;-88
2024/03/12 02:05:26;;;;;;;;;;;;;;;3.22;100.00;96110.44;5063420;28;19968;-73
2024/03/12 02:07:53;;;;;;;;;;;;;;;3.23;100.00;96121.59;5063309;28;19925;-73
2024/03/12 02:10:19;;;;;;;;;;;;;;;3.23;100.00;96108.63;5063351;28;19939;-73
2024/03/12 02:12:45;;;;;;;;;;;;;;;3.22;100.00;96105.25;5063385;28;19941;-73
2024/03/12 02:15:12;;;;;;;;;;;;;;;3.23;100.00;96119.00;5063306;28;19943;-73
2024/03/12 02:17:41;;;;;;;;;;;;;;;3.23;100.00;96108.63;5063337;28;19938;-73
2024/03/12 02:20:10;;;;;;;;;;;;;;;3.22;100.00;96101.88;5063382;28;19927;-66
2024/03/12 02:22:36;;;;;;;;;;;;;;;3.20;100.00;96103.84;5063212;28;19960;-67
2024/03/12 02:25:06;;;;;;;;;;;;;;;3.17;100.00;96106.75;5063220;28;19938;-79
2024/03/12 02:27:31;;;;;;;;;;;;;;;3.15;100.00;96114.75;5063274;28;19938;-77
2024/03/12 02:29:57;;;;;;;;;;;;;;;3.14;100.00;96120.09;5062134;28;19932;-80
2024/03/12 02:32:23;;;;;;;;;;;;;;;3.11;100.00;96128.19;5063176;28;19939;-78
2024/03/12 02:34:49;;;;;;;;;;;;;;;3.08;100.00;96121.59;5062997;28;19973;-78
2024/03/12 02:37:15;;;;;;;;;;;;;;;3.08;100.00;96120.81;5066712;28;19942;-79
2024/03/12 02:39:41;;;;;;;;;;;;;;;3.08;100.00;96115.63;5066727;28;19939;-73
2024/03/12 02:42:08;;;;;;;;;;;;;;;3.08;100.00;96128.56;5067316;28;19948;-74
2024/03/12 02:44:34;;;;;;;;;;;;;;;3.06;100.00;96131.34;5066574;28;19933;-74
2024/03/12 02:47:03;;;;;;;;;;;;;;;3.05;100.00;96122.78;5066521;28;19929;-74
2024/03/12 02:49:29;;;;;;;;;;;;;;;3.04;100.00;96123.75;5067030;28;19933;-74
2024/03/12 02:51:55;;;;;;;;;;;;;;;3.04;100.00;96125.53;5066420;28;19929;-75
2024/03/12 02:54:21;;;;;;;;;;;;;;;3.02;100.00;96125.72;5066945;28;20216;-74
2024/03/12 02:56:47;;;;;;;;;;;;;;;3.04;100.00;96133.28;5066365;28;19940;-73
2024/03/12 02:59:13;;;;;;;;;;;;;;;3.04;100.00;96135.88;5065753;28;19947;-74
2024/03/12 03:01:39;;;;;;;;;;;;;;;3.04;100.00;96133.28;5067110;28;20116;-87
2024/03/12 03:04:05;;;;;;;;;;;;;;;3.07;100.00;96140.72;5066250;28;20141;-88
2024/03/12 03:06:31;;;;;;;;;;;;;;;3.07;100.00;96138.13;5066907;28;19930;-86
2024/03/12 03:08:58;;;;;;;;;;;;;;;3.08;100.00;96147.50;5065531;28;19952;-86
2024/03/12 03:11:24;;;;;;;;;;;;;;;3.09;100.00;96141.34;5066182;28;19933;-84
2024/03/12 03:13:50;;;;;;;;;;;;;;;3.10;100.00;96144.75;5066793;28;19939;-87
2024/03/12 03:16:17;;;;;;;;;;;;;;;3.13;100.00;96146.97;5065937;28;20216;-79
2024/03/12 03:18:43;;;;;;;;;;;;;;;3.15;100.00;96134.63;5066013;28;20118;-74
2024/03/12 03:21:09;;;;;;;;;;;;;;;3.16;100.00;96138.84;5066142;28;19946;-73
2024/03/12 03:23:40;;;;;;;;;;;;;;;3.15;100.00;96137.22;5066333;28;19946;-74
2024/03/12 03:26:06;;;;;;;;;;;;;;;3.14;100.00;96130.44;5066386;28;19938;-74
2024/03/12 03:28:32;;;;;;;;;;;;;;;3.15;100.00;96145.81;5065797;28;19939;-74
2024/03/12 03:30:59;;;;;;;;;;;;;;;3.14;100.00;96133.84;5065749;28;20224;-74
2024/03/12 03:33:25;;;;;;;;;;;;;;;3.17;100.00;96140.44;5065527;28;19935;-86
2024/03/12 03:35:51;;;;;;;;;;;;;;;3.19;100.00;96133.28;5066237;28;19942;-68
2024/03/12 03:38:18;;;;;;;;;;;;;;;3.21;100.00;96146.88;5065547;28;19981;-74
2024/03/12 03:40:43;;;;;;;;;;;;;;;3.23;100.00;96137.16;5065554;28;19938;-73
2024/03/12 03:43:09;;;;;;;;;;;;;;;3.26;100.00;96139.41;5066185;28;19953;-73
2024/03/12 03:45:35;;;;;;;;;;;;;;;3.25;100.00;96146.38;5065477;28;19935;-72
2024/03/12 03:48:01;;;;;;;;;;;;;;;3.23;100.00;96143.16;5065416;28;19935;-74
2024/03/12 03:50:27;;;;;;;;;;;;;;;3.25;100.00;96145.53;5065412;28;20000;-74
2024/03/12 03:52:52;;;;;;;;;;;;;;;3.29;100.00;96151.97;5065606;28;19934;-73
2024/03/12 03:55:21;;;;;;;;;;;;;;;3.33;100.00;96153.22;5065261;28;19958;-71
2024/03/12 03:57:49;;;;;;;;;;;;;;;3.37;100.00;96162.25;5065239;28;19929;-71
2024/03/12 04:00:16;;;;;;;;;;;;;;;3.41;100.00;96158.31;5065129;28;19941;-70
2024/03/12 04:02:44;;;;;;;;;;;;;;;3.47;100.00;96158.59;5065076;28;19958;-70
2024/03/12 04:05:11;;;;;;;;;;;;;;;3.50;100.00;96166.00;5065622;28;20112;-70
2024/03/12 04:07:37;;;;;;;;;;;;;;;3.53;100.00;96169.06;5064893;28;19941;-71
2024/03/12 04:10:04;;;;;;;;;;;;;;;3.54;100.00;96175.03;5064930;28;19938;-73
2024/03/12 04:12:30;;;;;;;;;;;;;;;3.54;100.00;96175.03;5064971;28;19929;-71
2024/03/12 04:14:57;;;;;;;;;;;;;;;3.56;100.00;96173.88;5065631;28;20267;-74
2024/03/12 04:17:23;;;;;;;;;;;;;;;3.53;100.00;96176.00;5064792;28;19937;-73
2024/03/12 04:19:49;;;;;;;;;;;;;;;3.50;100.00;96182.34;5065566;28;19958;-73
2024/03/12 04:22:19;;;;;;;;;;;;;;;3.51;100.00;96185.75;5064642;28;19943;-73
2024/03/12 04:24:45;;;;;;;;;;;;;;;3.48;100.00;96179.13;5065450;28;19935;-73
2024/03/12 04:27:14;;;;;;;;;;;;;;;3.48;100.00;96186.91;5064617;28;20265;-74
2024/03/12 04:29:43;;;;;;;;;;;;;;;3.49;100.00;96187.75;5065102;28;19935;-67
2024/03/12 04:32:12;;;;;;;;;;;;;;;3.52;100.00;96192.56;5064139;28;19947;-73
2024/03/12 04:34:38;;;;;;;;;;;;;;;3.56;100.00;96191.22;5064305;28;19976;-72
2024/03/12 04:37:04;;;;;;;;;;;;;;;3.59;100.00;96193.44;5064458;28;19978;-72
2024/03/12 04:39:30;;;;;;;;;;;;;;;3.64;100.00;96207.47;5064682;28;20097;-71
2024/03/12 04:42:01;;;;;;;;;;;;;;;3.63;100.00;96190.31;5064392;28;20009;-73
2024/03/12 04:44:36;;;;;;;;;;;;;;;3.68;100.00;96201.94;5064246;28;19952;-72
2024/03/12 04:47:02;;;;;;;;;;;;;;;3.71;100.00;96196.38;5064356;28;19932;-87
2024/03/12 04:49:28;;;;;;;;;;;;;;;3.75;100.00;96201.03;5064552;28;20033;-87
2024/03/12 04:51:54;;;;;;;;;;;;;;;3.80;100.00;96206.50;5064222;28;20171;-66
2024/03/12 04:54:20;;;;;;;;;;;;;;;3.85;100.00;96206.75;5064161;28;19932;-67
2024/03/12 04:56:46;;;;;;;;;;;;;;;3.88;100.00;96205.56;5064934;28;19931;-66
2024/03/12 04:59:15;;;;;;;;;;;;;;;3.91;100.00;96207.03;5063326;28;20230;-67
2024/03/12 05:01:46;;;;;;;;;;;;;;;3.95;100.00;96211.66;5064087;28;20015;-67
2024/03/12 05:04:12;;;;;;;;;;;;;;;3.99;100.00;96219.84;5064762;28;19952;-67
2024/03/12 05:06:39;;;;;;;;;;;;;;;4.01;100.00;96215.28;5064032;28;19935;-72
2024/03/12 05:09:06;;;;;;;;;;;;;;;4.01;100.00;96225.69;5063845;28;20132;-67
2024/03/12 05:11:32;;;;;;;;;;;;;;;4.03;100.00;96223.69;5063337;28;20211;-66
2024/03/12 05:13:58;;;;;;;;;;;;;;;4.04;100.00;96226.13;5063888;28;20115;-67
2024/03/12 05:16:25;;;;;;;;;;;;;;;4.05;100.00;96242.50;5063864;28;19942;-66
2024/03/12 05:18:50;;;;;;;;;;;;;;;4.05;100.00;96234.69;5063914;28;19931;-67
2024/03/12 05:21:16;;;;;;;;;;;;;;;4.06;100.00;96233.72;5063823;28;19977;-66
2024/03/12 05:23:42;;;;;;;;;;;;;;;4.08;100.00;96236.94;5063659;28;19957;-73
2024/03/12 05:26:08;;;;;;;;;;;;;;;4.10;100.00;96250.56;5063768;28;19943;-66
2024/03/12 05:28:35;;;;;;;;;;;;;;;4.12;100.00;96252.97;5063730;28;19999;-69
2024/03/12 05:31:01;;;;;;;;;;;;;;;4.14;100.00;96249.19;5063706;28;19934;-69
2024/03/12 05:33:38;;;;;;;;;;;;;;;4.16;100.00;96251.59;5063516;28;19935;-69
2024/03/12 05:36:09;;;;;;;;;;;;;;;4.16;100.00;96264.56;5064135;28;20204;-69
2024/03/12 05:38:44;;;;;;;;;;;;;;;4.13;100.00;96260.56;5064492;28;19935;-69
2024/03/12 05:49:06;;;;;;;;;;;;;;;4.11;100.00;96278.09;5064071;28;19932;-69
2024/03/12 05:51:34;;;;;;;;;;;;;;;4.14;100.00;96285.53;5063491;28;19935;-69
2024/03/12 05:54:00;;;;;;;;;;;;;;;4.16;100.00;96278.38;5063451;28;19942;-69
2024/03/12 05:56:26;;;;;;;;;;;;;;;4.17;100.00;96279.16;5063953;28;19935;-69
2024/03/12 05:58:52;;;;;;;;;;;;;;;4.21;100.00;96283.81;5063399;28;19936;-69
2024/03/12 06:01:18;;;;;;;;;;;;;;;4.22;100.00;96279.41;5063937;28;19941;-71
2024/03/12 06:03:44;;;;;;;;;;;;;;;4.25;100.00;96282.47;5064126;28;19987;-66
2024/03/12 06:06:10;;;;;;;;;;;;;;;4.27;100.00;96274.50;5063360;28;19941;-67
2024/03/12 06:08:35;;;;;;;;;;;;;;;4.30;100.00;96284.50;5063478;28;19944;-66
2024/03/12 06:11:01;;;;;;;;;;;;;;;4.32;100.00;96287.72;5065983;28;20126;-66
2024/03/12 06:13:27;;;;;;;;;;;;;;;4.36;100.00;96288.19;5067691;28;19940;-66
2024/03/12 06:15:53;;;;;;;;;;;;;;;4.40;100.00;96298.00;5067059;28;19965;-67
2024/03/12 06:18:19;;;;;;;;;;;;;;;4.44;100.00;96295.84;5066859;28;19929;-67
2024/03/12 06:20:49;;;;;;;;;;;;;;;4.47;100.00;96295.47;5066485;28;19984;-74
2024/03/12 06:23:15;;;;;;;;;;;;;;;4.51;100.00;96301.13;5067642;28;19952;-75
2024/03/12 06:25:41;;;;;;;;;;;;;;;4.54;100.00;96313.75;5066869;28;20186;-74
2024/03/12 06:28:07;;;;;;;;;;;;;;;4.57;100.00;96310.78;5066897;28;19930;-74
2024/03/12 06:30:35;;;;;;;;;;;;;;;4.61;100.00;96317.22;5067042;28;19946;-75
2024/03/12 06:33:04;;;;;;;;;;;;;;;4.63;100.00;96317.84;5066775;28;19931;-75
2024/03/12 06:35:30;;;;;;;;;;;;;;;4.65;100.00;96313.28;5066587;28;20268;-75
2024/03/12 06:37:56;;;;;;;;;;;;;;;4.67;100.00;96317.28;5066760;28;19945;-71
2024/03/12 06:40:25;;;;;;;;;;;;;;;4.70;100.00;96317.91;5067386;28;19944;-71
2024/03/12 06:42:54;;;;;;;;;;;;;;;4.70;100.00;96321.31;5066457;28;19955;-73
2024/03/12 06:45:21;;;;;;;;;;;;;;;4.73;100.00;96320.16;5066964;28;19931;-72
2024/03/12 06:47:49;;;;;;;;;;;;;;;4.75;100.00;96316.38;5067278;28;19936;-72
2024/03/12 06:50:14;;;;;;;;;;;;;;;4.80;100.00;96324.41;5066422;28;20152;-72
2024/03/12 06:52:41;;;;;;;;;;;;;;;4.86;100.00;96325.47;5067164;28;19933;-72
2024/03/12 06:55:12;;;;;;;;;;;;;;;4.93;100.00;96323.72;5066347;28;19936;-72
2024/03/12 06:57:39;;;;;;;;;;;;;;;4.99;100.00;96327.41;5066921;28;19941;-73
2024/03/12 07:00:09;;;;;;;;;;;;;;;5.02;100.00;96324.44;5065236;28;19944;-74
2024/03/12 07:02:38;;;;;;;;;;;;;;;5.06;100.00;96333.44;5066114;28;19933;-74
2024/03/12 07:05:04;;;;;;;;;;;;;;;5.07;100.00;96346.28;5066919;28;20249;-74
2024/03/12 07:07:31;;;;;;;;;;;;;;;5.05;100.00;96334.44;5066389;28;20226;-75
2024/03/12 07:09:59;;;;;;;;;;;;;;;5.05;100.00;96337.84;5066785;28;19960;-74
2024/03/12 07:12:25;;;;;;;;;;;;;;;5.04;100.00;96344.06;5065994;28;20127;-74
2024/03/12 07:14:54;;;;;;;;;;;;;;;5.06;100.00;96346.44;5066011;28;19969;-71
2024/03/12 07:17:20;;;;;;;;;;;;;;;5.06;100.00;96349.03;5065925;28;20272;-73
2024/03/12 07:19:47;;;;;;;;;;;;;;;5.06;100.00;96349.03;5066438;28;19953;-73
2024/03/12 07:22:17;;;;;;;;;;;;;;;5.11;100.00;96348.50;5064951;28;19936;-74
2024/03/12 07:24:43;;;;;;;;;;;;;;;5.13;100.00;96365.53;5065709;28;19978;-73
2024/03/12 07:27:10;;;;;;;;;;;;;;;5.14;100.00;96363.72;5065686;28;19943;-72
2024/03/12 07:29:36;;;;;;;;;;;;;;;5.13;100.00;96367.34;5065690;28;19936;-73
2024/03/12 07:32:04;;;;;;;;;;;;;;;5.14;100.00;96363.72;5065682;28;19936;-73
2024/03/12 07:34:31;;;;;;;;;;;;;;;5.15;100.00;96366.16;5065501;28;19966;-84
2024/03/12 07:36:58;;;;;;;;;;;;;;;5.18;100.00;96372.75;5066409;28;20219;-72
2024/03/12 07:39:31;;;;;;;;;;;;;;;5.19;100.00;96375.19;5065776;28;19935;-73
2024/03/12 07:41:57;;;;;;;;;;;;;;;5.23;100.00;96367.84;5066107;28;19936;-73
2024/03/12 07:44:23;;;;;;;;;;;;;;;5.26;100.00;96367.44;5065242;28;19954;-73
2024/03/12 07:46:49;;;;;;;;;;;;;;;5.31;100.00;96372.88;5066006;28;20159;-73
2024/03/12 07:49:21;;;;;;;;;;;;;;;5.36;100.00;96373.13;5065308;28;20269;-73
2024/03/12 07:51:50;;;;;;;;;;;;;;;5.40;100.00;96384.78;5065586;28;19944;-71
2024/03/12 07:54:18;;;;;;;;;;;;;;;5.43;100.00;96387.00;5065256;28;19939;-73
2024/03/12 07:56:48;;;;;;;;;;;;;;;5.41;100.00;96382.97;5065746;28;20250;-72
2024/03/12 07:59:16;;;;;;;;;;;;;;;5.36;100.00;96377.53;5065123;28;20272;-73
2024/03/12 08:01:43;;;;;;;;;;;;;;;5.34;100.00;96384.72;5065075;28;19933;-72
2024/03/12 08:04:09;;;;;;;;;;;;;;;5.33;100.00;96390.91;5064942;28;19951;-73
2024/03/12 08:06:35;;;;;;;;;;;;;;;5.35;100.00;96381.91;5064980;28;19942;-73
2024/03/12 08:09:03;;;;;;;;;;;;;;;5.36;100.00;96380.94;5064869;28;20122;-73
2024/03/12 08:11:30;;;;;;;;;;;;;;;5.40;100.00;96387.38;5064898;28;19940;-67
2024/03/12 08:13:56;;;;;;;;;;;;;;;5.43;100.00;96400.00;5064833;28;19929;-71
2024/03/12 08:16:21;;;;;;;;;;;;;;;5.46;100.00;96394.44;5064770;28;20276;-71
2024/03/12 08:18:47;;;;;;;;;;;;;;;5.49;100.00;96395.84;5064775;28;20165;-71
2024/03/12 08:21:13;;;;;;;;;;;;;;;5.52;100.00;96403.28;5064711;28;20155;-72
2024/03/12 08:23:39;;;;;;;;;;;;;;;5.56;100.00;96399.31;5064519;28;20297;-70
2024/03/12 08:26:07;;;;;;;;;;;;;;;5.56;100.00;96393.31;5064664;28;20223;-71
2024/03/12 08:28:33;;;;;;;;;;;;;;;5.59;100.00;96395.56;5064526;28;19954;-66
2024/03/12 08:30:59;;;;;;;;;;;;;;;5.60;100.00;96402.34;5064530;28;19932;-76
2024/03/12 08:33:25;;;;;;;;;;;;;;;5.58;100.00;96402.53;5064253;28;19938;-76
2024/03/12 08:35:51;;;;;;;;;;;;;;;5.58;100.00;96399.13;5064875;28;19985;-77
2024/03/12 08:38:18;;;;;;;;;;;;;;;5.62;100.00;96408.16;5064368;28;19936;-77
2024/03/12 08:40:44;;;;;;;;;;;;;;;5.66;100.00;96406.81;5064359;28;19942;-76
2024/03/12 08:43:11;;;;;;;;;;;;;;;5.74;100.00;96411.88;5064846;28;20152;-76
2024/03/12 08:45:39;;;;;;;;;;;;;;;5.77;100.00;96411.50;5064821;28;19933;-77
2024/03/12 08:48:05;;;;;;;;;;;;;;;5.84;100.00;96408.97;5064235;28;19937;-77
2024/03/12 08:50:32;;;;;;;;;;;;;;;5.93;100.00;96404.41;5064212;28;19927;-71
2024/03/12 08:52:58;;;;;;;;;;;;;;;5.97;100.00;96409.09;5064227;28;19932;-71
2024/03/12 08:55:24;;;;;;;;;;;;;;;6.01;100.00;96412.13;5064172;28;20007;-71
2024/03/12 08:57:51;;;;;;;;;;;;;;;6.05;100.00;96413.34;5064124;28;19932;-71
2024/03/12 09:00:18;;;;;;;;;;;;;;;6.07;100.00;96426.97;5064521;28;20190;-72
2024/03/12 09:02:45;;;;;;;;;;;;;;;6.06;100.00;96417.56;5064049;28;19930;-72
2024/03/12 09:05:12;;;;;;;;;;;;;;;6.06;100.00;96425.34;5063914;28;19960;-76
2024/03/12 09:07:38;;;;;;;;;;;;;;;6.07;100.00;96430.38;5063951;28;20217;-67
2024/03/12 09:10:11;;;;;;;;;;;;;;;6.07;100.00;96417.38;5064690;28;19975;-66
2024/03/12 09:12:37;;;;;;;;;;;;;;;6.10;100.00;96413.56;5063960;28;20008;-66
2024/03/12 09:15:03;;;;;;;;;;;;;;;6.15;100.00;96415.59;5064539;28;19948;-66
2024/03/12 09:17:30;;;;;;;;;;;;;;;6.19;100.00;96414.22;5063813;28;19932;-66
2024/03/12 09:19:57;;;;;;;;;;;;;;;6.24;100.00;96422.28;5063835;28;19936;-66
2024/03/12 09:22:23;;;;;;;;;;;;;;;6.25;100.00;96424.69;5064296;28;19938;-66
2024/03/12 09:24:49;;;;;;;;;;;;;;;6.26;100.00;96423.69;5063629;28;19947;-67
2024/03/12 09:27:15;;;;;;;;;;;;;;;6.30;100.00;96430.13;5063426;28;19936;-66
2024/03/12 09:29:41;;;;;;;;;;;;;;;6.33;100.00;96428.94;5064151;28;19943;-66
2024/03/12 09:32:07;;;;;;;;;;;;;;;6.39;100.00;96435.19;5063398;28;19938;-66
2024/03/12 09:34:36;;;;;;;;;;;;;;;6.43;100.00;96429.41;5063409;28;20025;-66
2024/03/12 09:37:02;;;;;;;;;;;;;;;6.45;100.00;96431.81;5063367;28;20122;-67
2024/03/12 09:39:30;;;;;;;;;;;;;;;6.47;100.00;96435.84;5063394;28;19933;-66
2024/03/12 09:41:56;;;;;;;;;;;;;;;6.50;100.00;96442.47;5063928;28;19959;-79
2024/03/12 09:44:22;;;;;;;;;;;;;;;6.56;100.00;96435.69;5063400;28;19955;-71
2024/03/12 09:46:48;;;;;;;;;;;;;;;6.63;100.00;96434.72;5066905;28;20218;-75
2024/03/12 09:49:18;;;;;;;;;;;;;;;6.75;100.00;96447.22;5068032;28;19939;-75
2024/03/12 09:51:44;;;;;;;;;;;;;;;6.86;100.00;96434.41;5067468;28;19933;-76
2024/03/12 09:54:11;;;;;;;;;;;;;;;6.93;100.00;96437.06;5067360;28;19932;-76
2024/03/12 09:56:37;;;;;;;;;;;;;;;6.97;100.00;96445.28;5067251;28;19935;-75
2024/03/12 09:59:04;;;;;;;;;;;;;;;7.01;100.00;96457.72;5066969;28;19936;-76
2024/03/12 10:01:30;;;;;;;;;;;;;;;7.19;100.00;96436.34;5067445;28;19935;-66
2024/03/12 10:03:57;;;;;;;;;;;;;;;7.18;100.00;96439.97;5067283;28;19963;-68
2024/03/12 10:06:23;;;;;;;;;;;;;;;7.17;100.00;96453.19;5067278;28;19933;-68
2024/03/12 10:08:56;;;;;;;;;;;;;;;7.12;100.00;96451.19;5067230;28;19950;-68
2024/03/12 10:11:21;;;;;;;;;;;;;;;7.05;100.00;96450.34;5067790;28;20207;-68
2024/03/12 10:13:55;;;;;;;;;;;;;;;7.03;100.00;96454.94;5067144;28;19969;-68
2024/03/12 10:16:24;;;;;;;;;;;;;;;6.99;100.00;96457.16;5067885;28;19932;-68
2024/03/12 10:19:05;;;;;;;;;;;;;;;6.96;100.00;96460.13;5067083;28;19926;-76
2024/03/12 10:21:31;;;;;;;;;;;;;;;6.99;100.00;96457.16;5067078;28;19938;-76
2024/03/12 10:24:17;;;;;;;;;;;;;;;7.04;100.00;96465.19;5066952;28;19954;-76
2024/03/12 10:26:47;;;;;;;;;;;;;;;7.10;100.00;96461.78;5067023;28;19932;-76
2024/03/12 10:29:16;;;;;;;;;;;;;;;7.14;100.00;96464.81;5067433;28;19946;-77
2024/03/12 10:31:45;;;;;;;;;;;;;;;7.15;100.00;96461.19;5067757;28;19945;-76
2024/03/12 10:34:13;;;;;;;;;;;;;;;7.18;100.00;96470.44;5066687;28;20251;-76
2024/03/12 10:36:42;;;;;;;;;;;;;;;7.19;100.00;96464.22;5065608;28;19946;-72
2024/03/12 10:39:14;;;;;;;;;;;;;;;7.20;100.00;96465.81;5066988;28;19928;-78
2024/03/12 10:41:44;;;;;;;;;;;;;;;7.23;100.00;96470.66;5067307;28;19941;-78
2024/03/12 10:44:13;;;;;;;;;;;;;;;7.26;100.00;96462.44;5065554;28;19959;-78
2024/03/12 10:46:40;;;;;;;;;;;;;;;7.29;100.00;96467.28;5067226;28;19931;-78
2024/03/12 10:49:10;;;;;;;;;;;;;;;7.31;100.00;96468.69;5066568;28;19932;-78
2024/03/12 10:51:40;;;;;;;;;;;;;;;7.37;100.00;96467.09;5067380;28;20094;-78
2024/03/12 10:54:07;;;;;;;;;;;;;;;7.40;100.00;96463.28;5066743;28;19931;-79
2024/03/12 10:56:34;;;;;;;;;;;;;;;7.39;100.00;96485.97;5065216;28;19936;-75
2024/03/12 10:59:00;;;;;;;;;;;;;;;7.38;100.00;96486.16;5065362;28;20239;-76
2024/03/12 11:01:28;;;;;;;;;;;;;;;7.40;100.00;96489.38;5065871;28;19953;-76
2024/03/12 11:03:58;;;;;;;;;;;;;;;7.39;100.00;96487.75;5065161;28;19971;-75
2024/03/12 11:06:27;;;;;;;;;;;;;;;7.37;100.00;96487.97;5066785;28;20207;-75
2024/03/12 11:08:54;;;;;;;;;;;;;;;7.34;100.00;96483.13;5066043;28;19974;-76
2024/03/12 11:11:21;;;;;;;;;;;;;;;7.35;100.00;96492.59;5066089;28;19942;-76
2024/03/12 11:13:49;;;;;;;;;;;;;;;7.36;100.00;96488.16;5066203;28;20236;-76
2024/03/12 11:16:18;;;;;;;;;;;;;;;7.37;100.00;96495.81;5066615;28;19946;-72
2024/03/12 11:18:44;;;;;;;;;;;;;;;7.42;100.00;96482.97;5066533;28;19933;-72
2024/03/12 11:21:11;;;;;;;;;;;;;;;7.43;100.00;96487.19;5065287;28;19944;-72
2024/03/12 11:23:37;;;;;;;;;;;;;;;7.44;100.00;96486.19;5065826;28;19934;-71
2024/03/12 11:26:04;;;;;;;;;;;;;;;7.47;100.00;96484.97;5065852;28;19930;-72
2024/03/12 11:28:32;;;;;;;;;;;;;;;7.48;100.00;96484.78;5066340;28;20215;-72
2024/03/12 11:30:57;;;;;;;;;;;;;;;7.56;100.00;96486.41;5065753;28;19937;-72
2024/03/12 11:33:38;;;;;;;;;;;;;;;7.52;100.00;96487.81;5064374;28;19965;-78
2024/03/12 11:36:05;;;;;;;;;;;;;;;7.43;100.00;96499.41;5066204;28;19941;-73
2024/03/12 11:38:31;;;;;;;;;;;;;;;7.34;100.00;96500.59;5065584;28;19935;-72
2024/03/12 11:41:00;;;;;;;;;;;;;;;7.30;100.00;96500.97;5066168;28;19940;-72
2024/03/12 11:43:34;;;;;;;;;;;;;;;7.26;100.00;96499.75;5065518;28;19930;-72
2024/03/12 11:46:01;;;;;;;;;;;;;;;7.30;100.00;96503.59;5065986;28;19941;-72
2024/03/12 11:48:53;;;;;;;;;;;;;;;7.26;100.00;96496.34;5065392;28;19938;-72
2024/03/12 11:51:19;;;;;;;;;;;;;;;7.27;100.00;96497.97;5062445;28;19944;-72
2024/03/12 11:53:45;;;;;;;;;;;;;;;7.28;100.00;96495.16;5065598;28;19934;-71
2024/03/12 11:56:21;;;;;;;;;;;;;;;7.77;100.00;96506.34;5065247;28;19935;-71
2024/03/12 11:58:48;;;;;;;;;;;;;;;8.35;100.00;96471.78;5065828;28;19929;-72
2024/03/12 12:01:28;;;;;;;;;;;;;;;8.35;100.00;96461.34;5065155;28;20121;-71
2024/03/12 12:03:59;;;;;;;;;;;;;;;8.20;100.00;96479.03;5065834;28;19961;-72
2024/03/12 12:06:25;;;;;;;;;;;;;;;8.00;100.00;96481.63;5065070;28;19935;-71
2024/03/12 12:08:51;;;;;;;;;;;;;;;7.80;100.00;96482.44;5064594;28;20124;-71
2024/03/12 12:11:17;;;;;;;;;;;;;;;7.66;100.00;96484.19;5065861;28;19983;-68
2024/03/12 12:13:46;;;;;;;;;;;;;;;7.59;100.00;96488.63;5065471;28;20114;-77
2024/03/12 12:16:15;;;;;;;;;;;;;;;7.62;100.00;96498.69;5064905;28;19933;-78
2024/03/12 12:18:43;;;;;;;;;;;;;;;7.63;100.00;96494.25;5065693;28;19938;-77
2024/03/12 12:21:10;;;;;;;;;;;;;;;7.68;100.00;96507.50;5064975;28;19951;-78
2024/03/12 12:23:37;;;;;;;;;;;;;;;7.70;100.00;96487.22;5064727;28;19931;-78
2024/03/12 12:26:06;;;;;;;;;;;;;;;7.68;100.00;96490.03;5064757;28;19932;-77
2024/03/12 12:28:35;;;;;;;;;;;;;;;7.66;100.00;96493.84;5064688;28;20138;-73
2024/03/12 12:31:02;;;;;;;;;;;;;;;7.64;100.00;96495.84;5064887;28;19941;-72
2024/03/12 12:33:30;;;;;;;;;;;;;;;7.67;100.00;96492.88;5064384;28;19939;-71
2024/03/12 12:36:00;;;;;;;;;;;;;;;7.69;100.00;96491.66;5065083;28;19942;-73
2024/03/12 12:38:27;;;;;;;;;;;;;;;7.80;100.00;96481.63;5064373;28;19935;-72
2024/03/12 12:40:54;;;;;;;;;;;;;;;7.85;100.00;96464.38;5064440;28;19939;-72
2024/03/12 12:43:21;;;;;;;;;;;;;;;7.87;100.00;96479.81;5065123;28;20228;-72
2024/03/12 12:45:48;;;;;;;;;;;;;;;8.05;100.00;96494.91;5064201;28;19950;-71
2024/03/12 12:48:15;;;;;;;;;;;;;;;8.39;100.00;96456.50;5064488;28;19939;-79
2024/03/12 12:50:41;;;;;;;;;;;;;;;8.65;100.00;96469.56;5064274;28;19936;-67
2024/03/12 12:53:12;;;;;;;;;;;;;;;8.78;100.00;96429.50;5064239;28;19938;-67
2024/03/12 12:55:37;;;;;;;;;;;;;;;8.87;100.00;96422.22;5064951;28;20195;-67